createdAt,value
2023-03-03T00:01:02.903Z,19.00
2023-03-03T00:09:09.070Z,21.00
2023-03-03T00:17:24.904Z,19.13
2023-03-03T00:25:34.112Z,20.45
2023-03-03T00:33:50.797Z,19.35
2023-03-03T00:41:57.361Z,20.02
2023-03-03T00:50:34.191Z,26.00
2023-03-03T00:58:39.945Z,21.05
2023-03-03T01:06:48.129Z,19.95
2023-03-03T01:14:55.541Z,19.13
2023-03-03T01:23:03.780Z,19.90
2023-03-03T01:31:10.597Z,18.45
2023-03-03T01:39:19.002Z,17.95
2023-03-03T01:47:29.819Z,17.48
2023-03-03T01:55:40.433Z,18.95
2023-03-03T02:03:47.417Z,18.38
2023-03-03T02:12:03.128Z,17.55
2023-03-03T02:20:15.686Z,17.98
2023-03-03T02:28:24.322Z,18.13
2023-03-03T02:36:33.268Z,18.35
2023-03-03T02:44:41.614Z,16.98
2023-03-03T02:52:47.095Z,18.90
2023-03-03T03:00:57.121Z,18.17
2023-03-03T03:09:03.482Z,19.35
2023-03-03T03:17:11.830Z,18.67
2023-03-03T03:25:17.883Z,17.67
2023-03-03T03:33:28.376Z,17.92
2023-03-03T03:41:34.762Z,17.55
2023-03-03T03:49:42.931Z,18.33
2023-03-03T03:57:48.416Z,21.90
2023-03-03T04:05:58.714Z,20.10
2023-03-03T04:14:05.383Z,19.88
2023-03-03T04:22:14.722Z,19.23
2023-03-03T04:30:20.558Z,18.08
2023-03-03T04:38:31.486Z,18.90
2023-03-03T04:46:37.131Z,19.70
2023-03-03T04:54:46.041Z,21.92
2023-03-03T05:02:52.119Z,21.35
2023-03-03T05:11:01.756Z,21.02
2023-03-03T05:19:07.248Z,22.52
2023-03-03T05:27:15.544Z,20.85
2023-03-03T05:35:21.501Z,21.77
2023-03-03T05:43:29.587Z,21.70
2023-03-03T05:51:35.171Z,22.50
2023-03-03T05:59:43.649Z,22.65
2023-03-03T06:07:49.568Z,24.27
2023-03-03T06:15:58.223Z,22.80
2023-03-03T06:24:03.751Z,22.02
2023-03-03T06:32:12.272Z,25.25
2023-03-03T06:40:18.069Z,25.52
2023-03-03T06:48:26.111Z,27.20
2023-03-03T06:56:33.137Z,24.15
2023-03-03T07:04:41.478Z,23.60
2023-03-03T07:12:47.068Z,23.92
2023-03-03T07:20:55.388Z,22.77
2023-03-03T07:29:03.717Z,21.05
2023-03-03T07:37:20.368Z,21.58
2023-03-03T07:45:29.977Z,19.48
2023-03-03T07:53:39.541Z,18.67
2023-03-03T08:01:47.117Z,14.95
2023-03-03T08:10:02.262Z,14.80
2023-03-03T08:18:28.443Z,16.48
2023-03-03T08:26:39.914Z,14.00
2023-03-03T08:34:45.453Z,13.45
2023-03-03T08:42:54.840Z,11.75
2023-03-03T08:51:00.696Z,12.02
2023-03-03T08:59:08.982Z,10.90
2023-03-03T09:07:14.606Z,10.60
2023-03-03T09:15:30.494Z,11.65
2023-03-03T09:23:38.767Z,11.23
2023-03-03T09:31:48.875Z,11.82
2023-03-03T09:39:56.215Z,11.40
2023-03-03T09:48:40.513Z,13.30
2023-03-03T09:56:57.982Z,21.25
2023-03-03T10:05:17.652Z,18.55
2023-03-03T10:13:44.876Z,17.38
2023-03-03T10:21:54.553Z,16.23
2023-03-03T10:30:13.905Z,16.30
2023-03-03T10:38:39.946Z,15.40
2023-03-03T10:47:04.579Z,14.82
2023-03-03T10:55:39.569Z,13.02
2023-03-03T11:04:27.398Z,11.82
2023-03-03T11:12:49.149Z,11.10
2023-03-03T11:21:03.590Z,10.73
2023-03-03T11:29:28.596Z,11.23
2023-03-03T11:37:43.107Z,9.30
2023-03-03T11:45:54.566Z,10.20
2023-03-03T11:54:06.879Z,8.55
2023-03-03T12:02:33.645Z,10.13
2023-03-03T12:10:47.815Z,9.63
2023-03-03T12:19:18.274Z,8.70
2023-03-03T12:27:31.945Z,8.25
2023-03-03T12:35:51.039Z,8.43
2023-03-03T12:44:02.883Z,7.60
2023-03-03T12:52:25.267Z,7.85
2023-03-03T13:00:44.508Z,8.07
2023-03-03T13:09:05.841Z,8.32
2023-03-03T13:17:24.520Z,6.95
2023-03-03T13:25:50.682Z,8.00
2023-03-03T13:33:58.446Z,9.23
2023-03-03T13:42:12.172Z,10.43
2023-03-03T13:50:25.399Z,8.15
2023-03-03T13:58:39.721Z,9.07
2023-03-03T14:06:51.376Z,8.80
2023-03-03T14:15:07.055Z,9.48
2023-03-03T14:23:19.732Z,10.57
2023-03-03T14:31:30.927Z,10.73
2023-03-03T14:39:38.557Z,9.50
2023-03-03T14:47:50.077Z,9.68
2023-03-03T14:55:56.807Z,9.43
2023-03-03T15:04:07.258Z,11.05
2023-03-03T15:12:38.120Z,11.20
2023-03-03T15:20:49.878Z,12.60
2023-03-03T15:29:07.656Z,11.10
2023-03-03T15:37:30.586Z,12.98
2023-03-03T15:45:48.046Z,10.13
2023-03-03T15:54:20.972Z,9.32
2023-03-03T16:02:31.809Z,8.77
2023-03-03T16:10:54.935Z,10.65
2023-03-03T16:19:14.298Z,13.77
2023-03-03T16:27:27.719Z,11.90
2023-03-03T16:43:53.304Z,11.65
2023-03-03T16:52:06.893Z,10.15
2023-03-03T17:00:23.018Z,10.23
2023-03-03T17:08:49.885Z,11.52
2023-03-03T17:17:03.510Z,11.02
2023-03-03T17:25:19.234Z,11.95
2023-03-03T17:33:41.915Z,11.35
2023-03-03T17:41:56.252Z,10.77
2023-03-03T17:50:24.085Z,10.68
2023-03-03T17:58:54.411Z,11.75
2023-03-03T18:07:19.699Z,10.65
2023-03-03T18:15:39.486Z,12.95
2023-03-03T18:23:49.369Z,17.27
2023-03-03T18:32:19.350Z,24.20
2023-03-03T18:40:36.105Z,23.48
2023-03-03T18:48:51.888Z,23.40
2023-03-03T18:57:21.499Z,23.33
2023-03-03T19:05:29.114Z,24.67
2023-03-03T19:13:52.454Z,29.85
2023-03-03T19:22:25.258Z,28.27
2023-03-03T19:30:48.240Z,28.60
2023-03-03T19:39:14.733Z,29.15
2023-03-03T19:47:33.002Z,28.20
2023-03-03T19:55:53.179Z,25.90
2023-03-03T20:04:22.560Z,27.17
2023-03-03T20:12:36.445Z,26.85
2023-03-03T20:21:14.370Z,30.35
2023-03-03T20:29:40.668Z,31.48
2023-03-03T20:37:59.564Z,32.80
2023-03-03T20:46:14.617Z,29.50
2023-03-03T20:54:31.410Z,26.52
2023-03-03T21:02:43.963Z,26.45
2023-03-03T21:10:59.664Z,25.83
2023-03-03T21:19:10.071Z,26.23
2023-03-03T21:27:31.450Z,24.42
2023-03-03T21:35:57.160Z,23.20
2023-03-03T21:44:05.384Z,48.60
2023-03-03T21:52:11.121Z,31.48
2023-03-03T22:00:20.523Z,27.90
2023-03-03T22:08:28.086Z,25.92
2023-03-03T22:16:37.403Z,26.08
2023-03-03T22:24:42.872Z,22.98
2023-03-03T22:32:52.472Z,23.42
2023-03-03T22:41:00.183Z,27.52
2023-03-03T22:49:08.379Z,29.83
2023-03-03T22:57:13.883Z,28.45
2023-03-03T23:05:22.111Z,29.98
2023-03-03T23:13:28.082Z,30.48
2023-03-03T23:21:36.376Z,30.63
2023-03-03T23:29:42.190Z,27.65
2023-03-03T23:37:50.415Z,26.85
2023-03-03T23:45:56.350Z,24.00
2023-03-03T23:54:04.528Z,22.67
